Time;durP1;ratioP1;P1;durP2;ratioP2;P2;SDS_P1;SDS_P2;PMS_P1;PMS_P2;Temp;Humidity;BMP_temperature;BMP_pressure;BME280_temperature;BME280_humidity;BME280_pressure;Samples;Min_cycle;Max_cycle;Signal;HPM_P1;HPM_P2
2021/08/20 00:00:31;;;;;;;1.63;1.52;;;18.80;99.90;;;;;;4963786;28;20483;-74
2021/08/20 00:02:57;;;;;;;1.60;1.50;;;18.70;99.90;;;;;;4979320;28;20380;-74
2021/08/20 00:05:23;;;;;;;1.45;1.35;;;18.80;99.90;;;;;;4965167;28;20457;-74
2021/08/20 00:07:49;;;;;;;1.50;1.40;;;18.80;99.90;;;;;;4964294;28;20484;-74
2021/08/20 00:10:16;;;;;;;1.55;1.45;;;18.70;99.90;;;;;;4981412;28;20396;-74
2021/08/20 00:12:41;;;;;;;1.33;1.30;;;18.70;99.90;;;;;;4979022;28;20417;-74
2021/08/20 00:15:08;;;;;;;1.60;1.50;;;18.70;99.90;;;;;;4964998;28;20405;-75
2021/08/20 00:17:33;;;;;;;1.48;1.38;;;18.70;99.90;;;;;;4966835;28;20773;-74
2021/08/20 00:19:59;;;;;;;1.30;1.25;;;18.70;99.90;;;;;;4964554;28;20527;-74
2021/08/20 00:22:25;;;;;;;1.35;1.30;;;18.70;99.90;;;;;;4969653;28;20393;-74
2021/08/20 00:24:51;;;;;;;1.67;1.57;;;18.70;99.90;;;;;;4965811;28;20393;-74
2021/08/20 00:27:17;;;;;;;1.75;1.65;;;18.70;99.90;;;;;;4963457;28;20862;-74
2021/08/20 00:29:43;;;;;;;2.40;1.57;;;18.70;99.90;;;;;;4963756;28;20400;-74
2021/08/20 00:32:08;;;;;;;1.60;1.50;;;18.70;99.90;;;;;;4962901;28;21113;-74
2021/08/20 00:34:34;;;;;;;1.52;1.42;;;18.70;99.90;;;;;;4948636;28;20455;-74
2021/08/20 00:37:00;;;;;;;1.67;1.57;;;18.70;99.90;;;;;;4945967;28;20406;-74
2021/08/20 00:39:25;;;;;;;1.67;1.57;;;18.70;99.90;;;;;;4963789;28;20905;-74
2021/08/20 00:41:51;;;;;;;1.60;1.50;;;18.70;99.90;;;;;;4979321;28;20777;-74
2021/08/20 00:44:17;;;;;;;1.80;1.70;;;18.60;99.90;;;;;;4964408;28;20411;-74
2021/08/20 00:46:43;;;;;;;1.75;1.65;;;18.60;99.90;;;;;;4962795;28;20503;-73
2021/08/20 00:49:10;;;;;;;4.00;1.70;;;18.60;99.90;;;;;;4980368;28;20901;-74
2021/08/20 00:51:37;;;;;;;1.58;1.48;;;18.60;99.90;;;;;;4962153;28;20808;-74
2021/08/20 00:54:03;;;;;;;1.70;1.60;;;18.60;99.90;;;;;;4962317;28;20537;-74
2021/08/20 00:56:28;;;;;;;2.00;1.80;;;18.60;99.90;;;;;;4964226;28;20392;-74
2021/08/20 00:58:54;;;;;;;1.92;1.73;;;18.60;99.90;;;;;;4978556;28;20411;-74
2021/08/20 01:01:20;;;;;;;1.60;1.50;;;18.60;99.90;;;;;;4962063;28;20467;-74
2021/08/20 01:03:45;;;;;;;1.63;1.52;;;18.50;99.90;;;;;;4978486;28;20412;-74
2021/08/20 01:06:13;;;;;;;1.63;1.53;;;18.50;99.90;;;;;;4968761;28;20413;-74
2021/08/20 01:08:38;;;;;;;1.60;1.50;;;18.50;99.90;;;;;;4963613;28;20396;-73
2021/08/20 01:11:06;;;;;;;2.20;1.80;;;18.50;99.90;;;;;;4954196;28;20461;-74
2021/08/20 01:13:32;;;;;;;1.70;1.60;;;18.50;99.90;;;;;;4960900;28;20408;-73
2021/08/20 01:15:59;;;;;;;1.70;1.60;;;18.40;99.90;;;;;;4965791;28;20478;-74
2021/08/20 01:18:38;;;;;;;1.40;1.30;;;18.40;99.90;;;;;;4963749;28;20881;-74
2021/08/20 01:21:08;;;;;;;2.00;1.80;;;18.40;99.90;;;;;;4966128;28;20404;-74
2021/08/20 01:23:34;;;;;;;2.00;1.60;;;18.40;99.90;;;;;;4960163;28;20396;-74
2021/08/20 01:26:00;;;;;;;1.70;1.60;;;18.40;99.90;;;;;;4968735;28;20447;-74
2021/08/20 01:28:27;;;;;;;1.70;1.60;;;18.40;99.90;;;;;;4969914;28;20788;-74
2021/08/20 01:31:03;;;;;;;2.00;1.50;;;18.40;99.90;;;;;;4951646;28;20408;-74
2021/08/20 01:33:29;;;;;;;1.70;1.60;;;18.30;99.90;;;;;;4946605;28;20408;-74
2021/08/20 01:35:55;;;;;;;1.60;1.50;;;18.40;99.90;;;;;;4964630;28;20472;-74
2021/08/20 01:38:22;;;;;;;1.65;1.55;;;18.40;99.90;;;;;;4977206;28;20404;-74
2021/08/20 01:40:49;;;;;;;1.80;1.70;;;18.30;99.90;;;;;;4969687;28;20476;-74
2021/08/20 01:43:14;;;;;;;1.67;1.58;;;18.40;99.90;;;;;;4961593;28;20473;-74
2021/08/20 01:45:40;;;;;;;2.03;1.80;;;18.40;99.90;;;;;;4960820;28;20502;-74
2021/08/20 01:48:06;;;;;;;1.88;1.73;;;18.30;99.90;;;;;;4964524;28;20827;-74
2021/08/20 01:50:34;;;;;;;1.48;1.40;;;18.40;99.90;;;;;;4963983;28;20427;-74
2021/08/20 01:53:00;;;;;;;1.25;1.20;;;18.40;99.90;;;;;;4979214;28;20401;-74
2021/08/20 01:55:26;;;;;;;1.70;1.60;;;18.40;99.90;;;;;;4962537;28;20416;-74
2021/08/20 01:57:52;;;;;;;2.13;1.63;;;18.30;99.90;;;;;;4967582;28;20401;-74
2021/08/20 02:00:18;;;;;;;1.38;1.30;;;18.40;99.90;;;;;;4959946;28;20407;-74
2021/08/20 02:02:44;;;;;;;1.40;1.30;;;18.30;99.90;;;;;;4946159;28;20416;-74
2021/08/20 02:05:14;;;;;;;1.67;1.55;;;18.40;99.90;;;;;;4979358;28;20813;-73
2021/08/20 02:07:40;;;;;;;1.60;1.50;;;18.40;99.90;;;;;;4948824;28;20615;-74
2021/08/20 02:10:08;;;;;;;1.70;1.60;;;18.30;99.90;;;;;;4965501;28;20408;-74
2021/08/20 02:12:35;;;;;;;2.03;1.60;;;18.30;99.90;;;;;;4952381;28;20403;-74
2021/08/20 02:15:06;;;;;;;1.80;1.70;;;18.30;99.90;;;;;;4954930;28;20421;-73
2021/08/20 02:17:32;;;;;;;1.63;1.52;;;18.30;99.90;;;;;;4959625;28;20401;-74
2021/08/20 02:19:57;;;;;;;1.67;1.58;;;18.30;99.90;;;;;;4978345;28;20505;-74
2021/08/20 02:22:25;;;;;;;1.63;1.52;;;18.20;99.90;;;;;;4966007;28;20477;-74
2021/08/20 02:24:54;;;;;;;1.60;1.50;;;18.20;99.90;;;;;;4962151;28;20989;-74
2021/08/20 02:27:20;;;;;;;2.13;1.93;;;18.20;99.90;;;;;;4975700;28;20404;-74
2021/08/20 02:29:46;;;;;;;1.80;1.70;;;18.20;99.90;;;;;;4960427;28;20441;-74
2021/08/20 02:32:12;;;;;;;1.60;1.50;;;18.10;99.90;;;;;;4959360;28;20428;-74
2021/08/20 02:34:38;;;;;;;1.80;1.70;;;18.10;99.90;;;;;;4978347;28;20416;-73
2021/08/20 02:37:04;;;;;;;1.80;1.70;;;18.10;99.90;;;;;;4976913;28;20386;-74
2021/08/20 02:39:33;;;;;;;2.22;2.03;;;18.10;99.90;;;;;;4976241;28;20404;-74
2021/08/20 02:42:00;;;;;;;1.50;1.40;;;18.10;99.90;;;;;;4962687;28;21234;-73
2021/08/20 02:44:26;;;;;;;1.80;1.70;;;18.10;99.90;;;;;;4968096;28;20463;-74
2021/08/20 02:46:52;;;;;;;1.85;1.75;;;18.10;99.90;;;;;;4966443;28;20427;-74
2021/08/20 02:49:19;;;;;;;1.80;1.70;;;18.10;99.90;;;;;;4962091;28;20790;-73
2021/08/20 02:51:45;;;;;;;1.70;1.60;;;18.10;99.90;;;;;;4968145;28;20388;-74
2021/08/20 02:54:10;;;;;;;1.90;1.80;;;18.10;99.90;;;;;;4961792;28;20401;-74
2021/08/20 02:56:36;;;;;;;2.13;2.00;;;18.10;99.90;;;;;;4961288;28;20412;-74
2021/08/20 02:59:03;;;;;;;1.75;1.65;;;18.10;99.90;;;;;;4968291;28;20998;-74
2021/08/20 03:01:29;;;;;;;2.33;2.13;;;18.20;99.90;;;;;;4968004;28;20412;-74
2021/08/20 03:03:59;;;;;;;1.75;1.65;;;18.10;99.90;;;;;;4961602;28;20400;-74
2021/08/20 03:06:26;;;;;;;2.22;2.03;;;18.10;99.90;;;;;;4967776;28;20428;-73
2021/08/20 03:08:52;;;;;;;1.87;1.77;;;18.10;99.90;;;;;;4959465;28;20700;-74
2021/08/20 03:11:18;;;;;;;2.10;2.00;;;18.10;99.90;;;;;;4963556;28;20404;-74
2021/08/20 03:13:43;;;;;;;2.42;2.03;;;18.10;99.90;;;;;;4964580;28;20420;-74
2021/08/20 03:16:09;;;;;;;3.05;1.90;;;18.00;99.90;;;;;;4961289;28;20391;-74
2021/08/20 03:18:35;;;;;;;1.85;1.73;;;18.00;99.90;;;;;;4976660;28;20402;-74
2021/08/20 03:21:09;;;;;;;2.05;1.95;;;18.00;99.90;;;;;;4977332;28;20818;-74
2021/08/20 03:23:46;;;;;;;1.93;1.83;;;18.00;99.90;;;;;;4963521;28;21039;-74
2021/08/20 03:26:12;;;;;;;2.60;2.40;;;18.00;99.90;;;;;;4975663;28;20400;-74
2021/08/20 03:28:45;;;;;;;2.50;1.90;;;18.00;99.90;;;;;;4962353;28;20408;-74
2021/08/20 03:31:11;;;;;;;2.17;1.98;;;18.00;99.90;;;;;;4984794;28;20816;-74
2021/08/20 03:33:38;;;;;;;1.90;1.80;;;18.00;99.90;;;;;;4965825;28;21205;-74
2021/08/20 03:36:14;;;;;;;1.90;1.80;;;18.00;99.90;;;;;;4950985;28;20406;-74
2021/08/20 03:38:40;;;;;;;2.10;1.90;;;18.00;99.90;;;;;;4959407;28;21002;-74
2021/08/20 03:41:07;;;;;;;2.37;2.17;;;18.00;99.90;;;;;;4975911;28;20918;-74
2021/08/20 03:43:51;;;;;;;2.60;2.10;;;18.00;99.90;;;;;;4970310;28;20927;-74
2021/08/20 03:46:20;;;;;;;2.53;2.28;;;18.00;99.90;;;;;;4976494;28;20436;-74
2021/08/20 03:48:48;;;;;;;2.35;2.15;;;18.00;99.90;;;;;;4963102;28;20459;-74
2021/08/20 03:51:14;;;;;;;1.83;1.73;;;18.00;99.90;;;;;;4962226;28;20460;-74
2021/08/20 03:53:40;;;;;;;2.28;2.08;;;18.00;99.90;;;;;;4977837;28;22392;-74
2021/08/20 03:56:06;;;;;;;2.50;2.30;;;18.00;99.90;;;;;;4952981;28;20476;-73
2021/08/20 03:58:53;;;;;;;2.70;2.50;;;18.00;99.90;;;;;;4967012;28;20454;-73
2021/08/20 04:01:23;;;;;;;2.53;2.33;;;18.00;99.90;;;;;;4975731;28;20685;-74
2021/08/20 04:03:51;;;;;;;2.45;2.30;;;18.00;99.90;;;;;;4991718;28;20396;-74
2021/08/20 04:06:32;;;;;;;2.25;2.08;;;18.00;99.90;;;;;;4977379;28;20401;-74
2021/08/20 04:08:58;;;;;;;2.23;2.10;;;18.00;99.90;;;;;;4960908;28;20395;-73
2021/08/20 04:11:42;;;;;;;2.85;2.25;;;18.00;99.90;;;;;;4981256;28;21086;-74
2021/08/20 04:14:15;;;;;;;1.95;1.85;;;17.90;99.90;;;;;;4968967;28;20564;-73
2021/08/20 04:16:42;;;;;;;2.25;2.15;;;17.90;99.90;;;;;;4974944;28;20487;-74
2021/08/20 04:19:08;;;;;;;3.47;3.08;;;17.90;99.90;;;;;;4961850;28;20392;-74
2021/08/20 04:21:34;;;;;;;3.20;2.90;;;17.90;99.90;;;;;;4967114;28;20462;-74
2021/08/20 04:24:03;;;;;;;2.85;2.53;;;17.90;99.90;;;;;;4968300;28;20403;-73
2021/08/20 04:26:28;;;;;;;2.75;2.55;;;17.90;99.90;;;;;;4974905;28;20405;-74
2021/08/20 04:29:10;;;;;;;4.10;2.50;;;17.90;99.90;;;;;;4968172;28;20778;-74
2021/08/20 04:31:44;;;;;;;2.50;2.30;;;17.90;99.90;;;;;;4949927;28;20401;-73
2021/08/20 04:34:30;;;;;;;3.20;2.13;;;17.90;99.90;;;;;;4973817;28;20461;-74
2021/08/20 04:37:23;;;;;;;2.50;2.30;;;17.90;99.90;;;;;;4967022;28;20437;-74
2021/08/20 04:40:12;;;;;;;2.67;2.35;;;17.90;99.90;;;;;;4982492;28;20413;-73
2021/08/20 04:42:58;;;;;;;6.88;2.53;;;17.90;99.90;;;;;;4984401;28;20400;-74
2021/08/20 04:45:35;;;;;;;3.10;2.85;;;17.90;99.90;;;;;;4963955;28;20889;-74
2021/08/20 04:48:11;;;;;;;2.28;2.08;;;17.90;99.90;;;;;;4971797;28;20400;-74
2021/08/20 04:50:52;;;;;;;2.50;2.30;;;17.80;99.90;;;;;;4979796;28;21006;-74
2021/08/20 04:53:40;;;;;;;3.40;3.10;;;17.90;99.90;;;;;;4980706;28;20466;-74
2021/08/20 04:56:24;;;;;;;2.97;2.78;;;17.90;99.90;;;;;;4990219;28;20408;-74
2021/08/20 04:58:50;;;;;;;2.60;2.40;;;17.90;99.90;;;;;;4961521;28;20393;-74
2021/08/20 05:01:16;;;;;;;2.70;2.50;;;17.90;99.90;;;;;;4958883;28;20401;-74
2021/08/20 05:03:45;;;;;;;2.60;2.40;;;17.90;99.90;;;;;;4952977;28;20399;-74
2021/08/20 05:06:11;;;;;;;2.75;2.55;;;17.90;99.90;;;;;;4959645;28;20570;-73
2021/08/20 05:08:37;;;;;;;2.58;2.38;;;18.00;99.90;;;;;;4961606;28;20652;-74
2021/08/20 05:11:04;;;;;;;2.70;2.50;;;18.00;99.90;;;;;;4980012;28;20644;-74
2021/08/20 05:13:29;;;;;;;2.40;2.20;;;18.00;99.90;;;;;;4979317;28;20397;-74
2021/08/20 05:15:55;;;;;;;2.93;2.73;;;18.00;99.90;;;;;;4962736;28;20893;-74
2021/08/20 05:18:21;;;;;;;2.60;2.40;;;18.10;99.90;;;;;;4977763;28;20420;-74
2021/08/20 05:20:46;;;;;;;2.60;2.40;;;18.10;99.90;;;;;;4978458;28;20412;-74
2021/08/20 05:23:13;;;;;;;3.13;2.93;;;18.10;99.90;;;;;;4977982;28;20401;-74
2021/08/20 05:25:39;;;;;;;2.67;2.40;;;18.10;99.90;;;;;;4961189;28;20892;-74
2021/08/20 05:28:05;;;;;;;2.85;2.65;;;18.10;99.90;;;;;;4977393;28;20408;-74
2021/08/20 05:30:31;;;;;;;2.95;2.67;;;18.10;99.90;;;;;;4961993;28;20524;-74
2021/08/20 05:32:56;;;;;;;2.60;2.40;;;18.20;99.90;;;;;;4978501;28;20476;-74
2021/08/20 05:35:22;;;;;;;2.95;2.70;;;18.20;99.90;;;;;;4961151;28;20405;-74
2021/08/20 05:37:48;;;;;;;2.40;2.20;;;18.30;99.90;;;;;;4961953;28;20405;-76
2021/08/20 05:40:14;;;;;;;2.95;2.45;;;18.30;99.90;;;;;;4965920;28;20392;-75
2021/08/20 05:42:40;;;;;;;3.53;2.50;;;18.40;99.90;;;;;;4964072;28;20829;-75
2021/08/20 05:45:06;;;;;;;2.90;2.63;;;18.40;99.90;;;;;;4978287;28;20408;-76
2021/08/20 05:47:32;;;;;;;2.55;2.35;;;18.40;99.90;;;;;;4977911;28;20893;-76
2021/08/20 05:49:58;;;;;;;2.60;2.40;;;18.40;99.90;;;;;;4959147;28;20389;-76
2021/08/20 05:52:24;;;;;;;2.90;2.30;;;18.40;99.90;;;;;;4961993;28;20397;-75
2021/08/20 05:54:49;;;;;;;2.53;2.33;;;18.40;99.90;;;;;;4968208;28;20428;-76
2021/08/20 05:57:15;;;;;;;2.70;2.50;;;18.40;99.90;;;;;;4960798;28;20377;-76
2021/08/20 05:59:41;;;;;;;3.00;2.70;;;18.50;99.90;;;;;;4965189;28;20400;-75
2021/08/20 06:02:07;;;;;;;2.40;2.20;;;18.50;99.90;;;;;;4968915;28;20399;-76
2021/08/20 06:04:33;;;;;;;2.60;2.40;;;18.50;99.90;;;;;;4957176;28;20388;-75
2021/08/20 06:06:59;;;;;;;3.10;2.80;;;18.60;99.90;;;;;;4963688;28;20405;-76
2021/08/20 06:09:27;;;;;;;3.17;2.17;;;18.70;99.90;;;;;;4964996;28;20399;-77
2021/08/20 06:11:53;;;;;;;2.70;2.50;;;18.70;99.90;;;;;;4992060;28;20405;-76
2021/08/20 06:14:19;;;;;;;2.33;2.08;;;18.80;99.90;;;;;;4976950;28;20442;-75
2021/08/20 06:16:44;;;;;;;2.42;2.22;;;18.80;99.90;;;;;;4962087;28;20397;-76
2021/08/20 06:19:10;;;;;;;2.47;2.27;;;18.90;99.90;;;;;;4961248;28;20400;-76
2021/08/20 06:21:36;;;;;;;3.13;2.65;;;19.00;99.90;;;;;;4959193;28;20775;-76
2021/08/20 06:24:02;;;;;;;2.67;2.20;;;19.00;99.90;;;;;;4962801;28;20392;-76
2021/08/20 06:26:27;;;;;;;2.75;2.50;;;19.10;99.90;;;;;;4970014;28;20508;-77
2021/08/20 06:28:53;;;;;;;3.10;2.90;;;19.10;99.90;;;;;;4965788;28;20389;-76
2021/08/20 06:31:21;;;;;;;2.65;2.45;;;19.20;99.90;;;;;;4977379;28;21368;-76
2021/08/20 06:33:47;;;;;;;5.00;2.50;;;19.30;99.90;;;;;;4972547;28;20418;-75
2021/08/20 06:36:12;;;;;;;2.23;2.10;;;19.40;99.90;;;;;;4957607;28;20718;-76
2021/08/20 06:38:38;;;;;;;2.70;2.47;;;19.50;99.90;;;;;;4965126;28;20403;-75
2021/08/20 06:41:04;;;;;;;2.67;2.20;;;19.60;99.90;;;;;;4959718;28;20460;-76
2021/08/20 06:43:29;;;;;;;2.55;2.38;;;19.60;99.90;;;;;;4956169;28;20384;-75
2021/08/20 06:45:55;;;;;;;2.05;1.95;;;19.70;99.90;;;;;;4966840;28;20412;-76
2021/08/20 06:48:21;;;;;;;2.97;2.78;;;19.80;99.90;;;;;;4974062;28;20420;-76
2021/08/20 06:50:47;;;;;;;2.28;2.17;;;19.90;99.90;;;;;;4949889;28;21162;-77
2021/08/20 06:53:12;;;;;;;2.83;2.50;;;20.00;99.90;;;;;;4954331;28;20392;-75
2021/08/20 06:55:38;;;;;;;3.00;2.63;;;20.10;99.90;;;;;;4958306;28;20440;-75
2021/08/20 06:58:04;;;;;;;2.30;2.20;;;20.10;99.90;;;;;;4978174;28;20400;-77
2021/08/20 07:00:29;;;;;;;2.77;2.57;;;20.10;99.90;;;;;;4964310;28;20397;-76
2021/08/20 07:02:55;;;;;;;2.38;2.15;;;20.20;99.90;;;;;;4956864;28;20869;-75
2021/08/20 07:05:21;;;;;;;2.42;2.22;;;20.20;99.90;;;;;;4963183;28;20428;-75
2021/08/20 07:07:47;;;;;;;2.60;2.40;;;20.20;99.90;;;;;;4962345;28;20416;-76
2021/08/20 07:10:14;;;;;;;2.55;2.35;;;20.30;99.90;;;;;;4964432;28;20456;-76
2021/08/20 07:12:40;;;;;;;2.60;2.40;;;20.40;99.90;;;;;;4975327;28;20396;-75
2021/08/20 07:15:06;;;;;;;2.23;2.03;;;20.40;99.90;;;;;;4965066;28;20408;-76
2021/08/20 07:17:32;;;;;;;3.92;2.50;;;20.40;99.90;;;;;;4958109;28;20431;-76
2021/08/20 07:19:58;;;;;;;2.88;2.58;;;20.50;99.90;;;;;;4975399;28;20404;-76
2021/08/20 07:22:24;;;;;;;2.47;2.27;;;20.50;99.90;;;;;;4965877;28;20900;-76
2021/08/20 07:24:49;;;;;;;2.80;2.60;;;20.50;99.90;;;;;;4972516;28;20397;-76
2021/08/20 07:27:15;;;;;;;2.40;2.20;;;20.50;99.90;;;;;;4958056;28;20509;-77
2021/08/20 07:29:41;;;;;;;2.67;2.47;;;20.50;99.90;;;;;;4975612;28;20993;-75
2021/08/20 07:32:07;;;;;;;2.25;2.13;;;20.50;99.90;;;;;;4960277;28;20392;-76
2021/08/20 07:34:33;;;;;;;2.47;2.28;;;20.50;99.90;;;;;;4976687;28;20400;-76
2021/08/20 07:36:58;;;;;;;2.20;2.00;;;20.60;99.90;;;;;;4960540;28;20385;-76
2021/08/20 07:39:26;;;;;;;2.60;2.40;;;20.70;99.90;;;;;;4977355;28;20397;-76
2021/08/20 07:41:55;;;;;;;2.70;2.50;;;20.70;99.90;;;;;;4959317;28;20904;-76
2021/08/20 07:44:21;;;;;;;3.10;2.50;;;20.70;99.90;;;;;;4975517;28;20431;-76
2021/08/20 07:46:46;;;;;;;2.72;2.50;;;20.80;99.90;;;;;;4975964;28;21138;-77
2021/08/20 07:49:12;;;;;;;3.20;3.00;;;20.90;99.90;;;;;;4994756;28;20911;-77
2021/08/20 07:51:38;;;;;;;3.27;2.60;;;21.10;99.90;;;;;;4963302;28;20396;-77
2021/08/20 07:54:04;;;;;;;3.05;2.67;;;21.10;99.90;;;;;;4974586;28;20484;-75
2021/08/20 07:56:30;;;;;;;3.38;3.08;;;21.10;99.90;;;;;;4962354;28;20386;-77
2021/08/20 07:58:55;;;;;;;3.40;2.50;;;21.10;99.90;;;;;;4965966;28;20404;-76
2021/08/20 08:01:21;;;;;;;2.70;2.50;;;21.20;99.90;;;;;;4965761;28;21045;-76
2021/08/20 08:03:47;;;;;;;4.40;2.80;;;21.30;99.90;;;;;;4965559;28;20392;-76
2021/08/20 08:06:13;;;;;;;3.53;3.07;;;21.20;99.90;;;;;;4982976;28;20448;-76
2021/08/20 08:08:39;;;;;;;3.10;2.90;;;21.20;99.90;;;;;;4991530;28;20854;-76
2021/08/20 08:11:05;;;;;;;2.70;2.50;;;21.10;99.90;;;;;;4984844;28;20397;-77
2021/08/20 08:13:30;;;;;;;2.40;2.20;;;21.10;99.90;;;;;;4969125;28;20386;-76
2021/08/20 08:15:56;;;;;;;2.50;2.30;;;21.30;99.90;;;;;;4968984;28;20400;-75
2021/08/20 08:18:22;;;;;;;2.80;2.60;;;21.40;99.90;;;;;;4956376;28;20423;-76
2021/08/20 08:20:47;;;;;;;2.93;2.73;;;21.50;99.90;;;;;;4976388;28;20486;-76
2021/08/20 08:23:13;;;;;;;2.80;2.50;;;21.60;99.90;;;;;;4978513;28;20777;-76
2021/08/20 08:25:39;;;;;;;3.40;3.10;;;21.70;99.90;;;;;;4976413;28;20406;-76
2021/08/20 08:28:05;;;;;;;2.77;2.57;;;21.70;99.90;;;;;;4960939;28;21004;-76
2021/08/20 08:30:36;;;;;;;2.17;2.05;;;21.80;99.90;;;;;;4995917;28;20431;-76
2021/08/20 08:33:01;;;;;;;3.22;2.92;;;21.80;99.90;;;;;;4961310;28;20465;-78
2021/08/20 08:35:30;;;;;;;2.55;2.35;;;21.90;99.90;;;;;;4979202;28;20397;-76
2021/08/20 08:38:06;;;;;;;2.55;2.22;;;22.00;99.90;;;;;;4979483;28;20396;-76
2021/08/20 08:40:32;;;;;;;2.88;2.60;;;22.10;99.90;;;;;;4959862;28;20455;-75
2021/08/20 08:42:58;;;;;;;2.60;2.38;;;22.30;99.90;;;;;;4955024;28;21063;-76
2021/08/20 08:45:24;;;;;;;2.63;2.42;;;22.40;99.90;;;;;;4963546;28;20401;-76
2021/08/20 08:47:52;;;;;;;2.45;2.25;;;22.50;99.90;;;;;;4978059;28;20467;-76
2021/08/20 08:50:18;;;;;;;2.15;2.05;;;22.70;99.90;;;;;;4975040;28;20408;-76
2021/08/20 08:52:43;;;;;;;4.07;2.67;;;22.90;99.90;;;;;;4960352;28;20407;-75
2021/08/20 08:55:10;;;;;;;2.38;2.20;;;23.20;99.90;;;;;;4978400;28;20409;-75
2021/08/20 08:57:35;;;;;;;2.20;2.00;;;23.20;99.90;;;;;;4976569;28;20920;-77
2021/08/20 09:00:02;;;;;;;2.55;2.35;;;23.10;99.90;;;;;;4995324;28;20397;-76
2021/08/20 09:02:30;;;;;;;2.65;2.45;;;23.00;99.90;;;;;;4973475;28;20409;-76
2021/08/20 09:05:00;;;;;;;2.37;2.10;;;22.90;99.90;;;;;;4963966;28;20443;-76
2021/08/20 09:07:26;;;;;;;2.20;2.00;;;22.90;99.90;;;;;;4965096;28;20548;-76
2021/08/20 09:10:12;;;;;;;2.28;2.08;;;23.00;99.90;;;;;;4963806;28;21010;-76
2021/08/20 09:12:41;;;;;;;2.17;2.05;;;23.00;99.90;;;;;;4986499;28;20909;-76
2021/08/20 09:15:07;;;;;;;1.80;1.70;;;23.00;99.90;;;;;;4978285;28;20508;-77
2021/08/20 09:17:34;;;;;;;2.20;2.00;;;23.00;99.90;;;;;;4973781;28;21358;-77
2021/08/20 09:20:18;;;;;;;2.08;1.92;;;23.00;99.90;;;;;;4979406;28;20392;-76
2021/08/20 09:22:44;;;;;;;2.10;2.00;;;23.00;99.90;;;;;;5004337;28;21161;-76
2021/08/20 09:25:39;;;;;;;2.03;1.92;;;23.00;99.90;;;;;;4963391;28;20389;-76
2021/08/20 09:28:27;;;;;;;2.20;2.00;;;23.00;99.90;;;;;;5002247;28;20893;-76
2021/08/20 09:30:58;;;;;;;1.95;1.85;;;23.10;99.90;;;;;;4973177;28;20810;-76
2021/08/20 09:33:34;;;;;;;2.40;2.20;;;23.20;99.90;;;;;;5004149;28;20423;-76
2021/08/20 09:36:10;;;;;;;6.78;2.05;;;23.10;99.90;;;;;;4980347;28;20409;-76
2021/08/20 09:38:43;;;;;;;2.08;1.98;;;23.00;99.90;;;;;;4986308;28;21098;-77
2021/08/20 09:41:15;;;;;;;1.95;1.80;;;22.70;99.90;;;;;;4988518;28;20393;-76
2021/08/20 09:43:41;;;;;;;2.30;2.10;;;22.60;99.90;;;;;;4992767;28;20396;-76
2021/08/20 09:46:13;;;;;;;2.28;2.10;;;22.60;99.90;;;;;;4962750;28;20396;-76
2021/08/20 09:48:55;;;;;;;2.28;2.08;;;22.60;99.90;;;;;;4965823;28;20870;-75
2021/08/20 09:51:40;;;;;;;2.03;1.92;;;22.60;99.90;;;;;;4974463;28;20962;-75
2021/08/20 09:54:15;;;;;;;2.55;2.35;;;22.70;99.90;;;;;;4995986;28;20412;-76
2021/08/20 09:56:41;;;;;;;2.08;1.98;;;22.60;99.90;;;;;;4942406;28;20888;-76
2021/08/20 09:59:08;;;;;;;2.30;2.10;;;22.70;99.90;;;;;;4965014;28;20471;-76
2021/08/20 10:01:35;;;;;;;2.15;1.95;;;22.90;99.90;;;;;;4961778;28;20466;-76
2021/08/20 10:04:03;;;;;;;2.20;2.10;;;22.90;99.90;;;;;;4977629;28;21116;-76
2021/08/20 10:06:42;;;;;;;2.13;1.93;;;23.00;99.90;;;;;;4976318;28;20436;-76
2021/08/20 10:09:13;;;;;;;2.10;2.00;;;23.00;99.90;;;;;;4964799;28;20401;-77
2021/08/20 10:11:40;;;;;;;1.50;1.40;;;22.90;99.90;;;;;;4948757;28;20455;-76
2021/08/20 10:14:06;;;;;;;2.58;2.38;;;22.90;99.90;;;;;;4974655;28;20417;-76
2021/08/20 10:16:34;;;;;;;2.03;1.92;;;22.70;99.90;;;;;;5003585;28;20412;-76
2021/08/20 10:19:01;;;;;;;2.00;1.90;;;22.70;99.90;;;;;;5004154;28;20393;-76
2021/08/20 10:21:29;;;;;;;2.20;2.10;;;22.60;99.90;;;;;;4967892;28;20408;-77
2021/08/20 10:23:54;;;;;;;2.50;2.17;;;22.50;99.90;;;;;;4974106;28;21226;-75
2021/08/20 10:26:20;;;;;;;2.20;2.10;;;22.50;99.90;;;;;;4987187;28;20473;-76
2021/08/20 10:28:46;;;;;;;1.92;1.83;;;22.40;99.90;;;;;;4946361;28;20397;-75
2021/08/20 10:31:12;;;;;;;2.10;1.90;;;22.40;99.90;;;;;;4992824;28;20459;-76
2021/08/20 10:33:38;;;;;;;2.60;2.35;;;22.40;99.90;;;;;;4979300;28;20400;-76
2021/08/20 10:36:04;;;;;;;3.20;2.30;;;22.40;99.90;;;;;;4982528;28;20415;-76
2021/08/20 10:38:36;;;;;;;2.20;2.10;;;22.30;99.90;;;;;;4978418;28;20463;-76
2021/08/20 10:41:12;;;;;;;2.25;2.05;;;22.10;99.90;;;;;;4985207;28;20426;-78
2021/08/20 10:43:49;;;;;;;1.73;1.63;;;22.10;99.90;;;;;;5007770;28;20424;-76
2021/08/20 10:46:39;;;;;;;1.63;1.52;;;22.20;99.90;;;;;;5006128;28;20447;-75
2021/08/20 10:52:05;;;;;;;2.45;2.00;;;22.20;99.90;;;;;;4995389;28;20455;-76
2021/08/20 10:54:31;;;;;;;2.90;1.92;;;22.20;99.90;;;;;;4963922;28;20416;-77
2021/08/20 10:56:57;;;;;;;1.98;1.83;;;22.20;99.90;;;;;;5004040;28;20797;-76
2021/08/20 10:59:45;;;;;;;2.22;2.03;;;22.20;99.90;;;;;;4961372;28;20685;-76
2021/08/20 11:02:20;;;;;;;2.30;2.10;;;22.30;99.90;;;;;;4985232;28;21031;-76
2021/08/20 11:05:10;;;;;;;1.80;1.70;;;22.30;99.90;;;;;;4969379;28;20830;-76
2021/08/20 11:07:36;;;;;;;1.98;1.77;;;22.20;99.90;;;;;;4995936;28;20487;-76
2021/08/20 11:10:08;;;;;;;3.90;2.38;;;22.20;99.90;;;;;;4984229;28;20407;-76
2021/08/20 11:12:51;;;;;;;2.10;1.85;;;22.30;99.90;;;;;;4983590;28;20402;-76
2021/08/20 11:15:17;;;;;;;2.33;1.83;;;22.40;99.90;;;;;;5000362;28;20424;-77
2021/08/20 11:17:55;;;;;;;2.13;2.03;;;22.40;99.90;;;;;;5003679;28;20762;-77
2021/08/20 11:20:21;;;;;;;2.00;1.80;;;22.50;99.90;;;;;;4967107;28;20451;-76
2021/08/20 11:23:06;;;;;;;1.80;1.70;;;22.60;99.90;;;;;;4981189;28;20442;-77
2021/08/20 11:25:51;;;;;;;1.75;1.65;;;22.80;99.90;;;;;;4989283;28;20407;-77
2021/08/20 11:28:21;;;;;;;2.30;2.08;;;23.00;99.90;;;;;;4988536;28;20911;-76
2021/08/20 11:31:08;;;;;;;3.90;2.40;;;23.30;99.90;;;;;;4973465;28;20401;-76
2021/08/20 11:33:43;;;;;;;43.65;18.00;;;23.60;99.90;;;;;;4982230;28;20826;-77
2021/08/20 11:36:13;;;;;;;5.28;3.33;;;23.80;99.90;;;;;;4984562;28;21016;-76
2021/08/20 11:38:43;;;;;;;3.28;2.70;;;24.10;99.90;;;;;;4982069;28;20384;-76
2021/08/20 11:41:13;;;;;;;1.70;1.60;;;24.50;99.90;;;;;;4959327;28;20895;-77
2021/08/20 11:43:49;;;;;;;2.08;1.98;;;24.80;99.90;;;;;;4955257;28;20470;-76
2021/08/20 11:46:15;;;;;;;1.80;1.70;;;25.10;99.90;;;;;;4980662;28;20403;-77
2021/08/20 11:48:45;;;;;;;2.45;2.25;;;25.60;99.90;;;;;;4956736;28;20396;-77
2021/08/20 11:51:11;;;;;;;2.10;1.90;;;25.90;99.90;;;;;;4965222;28;20476;-77
2021/08/20 11:53:37;;;;;;;2.33;2.10;;;26.00;99.90;;;;;;4970505;28;20396;-76
2021/08/20 11:56:08;;;;;;;2.47;2.28;;;26.10;99.90;;;;;;4966750;28;20404;-77
2021/08/20 11:58:34;;;;;;;2.00;1.80;;;26.20;99.90;;;;;;4979513;28;20393;-76
2021/08/20 12:01:00;;;;;;;2.17;2.07;;;26.50;99.90;;;;;;4961577;28;20415;-77
2021/08/20 12:03:25;;;;;;;2.10;2.00;;;26.40;99.90;;;;;;4960257;28;20408;-76
2021/08/20 12:06:08;;;;;;;1.93;1.83;;;26.40;99.90;;;;;;4963427;28;20478;-76
2021/08/20 12:08:35;;;;;;;2.10;2.00;;;26.20;99.90;;;;;;4966596;28;20904;-76
2021/08/20 12:11:00;;;;;;;2.03;1.93;;;25.90;99.90;;;;;;4972712;28;20394;-76
2021/08/20 12:13:26;;;;;;;2.80;2.25;;;25.70;99.90;;;;;;4963299;28;20484;-76
2021/08/20 12:15:52;;;;;;;2.27;1.73;;;25.50;99.90;;;;;;4968084;28;21042;-77
2021/08/20 12:18:27;;;;;;;1.70;1.60;;;25.50;99.90;;;;;;4996003;28;20433;-76
2021/08/20 12:20:55;;;;;;;2.03;1.92;;;25.60;99.90;;;;;;4956248;28;20470;-77
2021/08/20 12:23:21;;;;;;;2.35;2.15;;;25.60;99.90;;;;;;4954138;28;20525;-77
2021/08/20 12:25:47;;;;;;;1.88;1.77;;;25.40;99.90;;;;;;4950335;28;20437;-77
2021/08/20 12:28:14;;;;;;;2.28;1.95;;;25.30;99.90;;;;;;4961302;28;20436;-76
2021/08/20 12:30:40;;;;;;;1.93;1.77;;;25.30;99.90;;;;;;4956147;28;20403;-76
2021/08/20 12:33:05;;;;;;;2.20;1.88;;;25.20;99.90;;;;;;4965070;28;21077;-76
2021/08/20 12:35:31;;;;;;;2.03;1.83;;;25.30;99.90;;;;;;4965389;28;20413;-76
2021/08/20 12:38:10;;;;;;;2.30;2.10;;;25.40;99.90;;;;;;4978164;28;20812;-76
2021/08/20 12:40:44;;;;;;;2.15;1.95;;;25.90;99.90;;;;;;4980622;28;20476;-76
2021/08/20 12:43:36;;;;;;;1.70;1.60;;;26.40;99.90;;;;;;4960917;28;20404;-75
2021/08/20 12:46:18;;;;;;;2.05;1.90;;;26.60;99.90;;;;;;4966382;28;20924;-76
2021/08/20 12:48:52;;;;;;;1.70;1.60;;;26.40;99.90;;;;;;4962548;28;20400;-77
2021/08/20 12:51:18;;;;;;;2.15;1.95;;;26.20;99.90;;;;;;5006473;28;20928;-76
2021/08/20 12:53:44;;;;;;;1.77;1.67;;;25.90;99.90;;;;;;4964603;28;20431;-77
2021/08/20 12:56:10;;;;;;;2.90;1.60;;;25.70;99.90;;;;;;4979613;28;20401;-77
2021/08/20 12:58:36;;;;;;;2.40;2.20;;;25.50;99.90;;;;;;4972049;28;21263;-76